GFA509 OMDB-OBBI
Flight info
| Callsign | GFA509 |
|---|---|
| Flight time | 0h 58m |
| Altitude | 26000 |
| Route | NABIX3F NABIX P699 ORMID M556 ORDIG ORDIG1 |
| Aircraft | A321/M-SDE3FGHIRWY/LB1 |
Departure
| Time | 2026-04-20 03:35 |
|---|---|
| Airport | Dubai International Airport (OMDB) |
Arrival
| Time | 2026-04-20 04:33 |
|---|---|
| Airport | Bahrain International Airport (OBBI) |
| Time | Latitude | Longitude | Altitude | Speed | Heading |
|---|---|---|---|---|---|
| 2026-04-20 02:54 | 25.25641 | 55.34818 | 23 ft | 0 kts | 304° |
| 2026-04-20 03:22 | 25.25633 | 55.34830 | 24 ft | 4 kts | 302° |
| 2026-04-20 03:23 | 25.25619 | 55.34856 | 25 ft | 4 kts | 300° |
| 2026-04-20 03:23 | 25.25606 | 55.34879 | 22 ft | 2 kts | 304° |
| 2026-04-20 03:23 | 25.25591 | 55.34897 | 25 ft | 4 kts | 355° |
| 2026-04-20 03:23 | 25.25573 | 55.34887 | 25 ft | 4 kts | 47° |
| 2026-04-20 03:24 | 25.25560 | 55.34873 | 25 ft | 0 kts | 34° |
| 2026-04-20 03:27 | 25.25564 | 55.34877 | 25 ft | 2 kts | 34° |
| 2026-04-20 03:27 | 25.25584 | 55.34891 | 25 ft | 5 kts | 34° |
| 2026-04-20 03:28 | 25.25617 | 55.34916 | 22 ft | 7 kts | 33° |
| 2026-04-20 03:28 | 25.25667 | 55.34947 | 22 ft | 9 kts | 29° |
| 2026-04-20 03:28 | 25.25808 | 55.35040 | 22 ft | 14 kts | 31° |
| 2026-04-20 03:29 | 25.25898 | 55.35100 | 22 ft | 16 kts | 31° |
| 2026-04-20 03:29 | 25.25999 | 55.35167 | 22 ft | 18 kts | 31° |
| 2026-04-20 03:29 | 25.26110 | 55.35249 | 24 ft | 18 kts | 54° |
| 2026-04-20 03:29 | 25.26096 | 55.35328 | 22 ft | 9 kts | 124° |
| 2026-04-20 03:30 | 25.26062 | 55.35396 | 22 ft | 11 kts | 121° |
| 2026-04-20 03:30 | 25.26016 | 55.35479 | 22 ft | 14 kts | 121° |
| 2026-04-20 03:30 | 25.25963 | 55.35575 | 22 ft | 16 kts | 121° |
| 2026-04-20 03:30 | 25.25902 | 55.35686 | 22 ft | 18 kts | 120° |
| 2026-04-20 03:31 | 25.25834 | 55.35809 | 22 ft | 20 kts | 122° |
| 2026-04-20 03:31 | 25.25758 | 55.35943 | 22 ft | 21 kts | 121° |
| 2026-04-20 03:31 | 25.25677 | 55.36090 | 24 ft | 23 kts | 121° |
| 2026-04-20 03:31 | 25.25591 | 55.36248 | 23 ft | 25 kts | 121° |
| 2026-04-20 03:32 | 25.25498 | 55.36415 | 22 ft | 26 kts | 121° |
| 2026-04-20 03:32 | 25.25400 | 55.36590 | 23 ft | 27 kts | 122° |
| 2026-04-20 03:32 | 25.25298 | 55.36774 | 22 ft | 29 kts | 122° |
| 2026-04-20 03:32 | 25.25193 | 55.36965 | 22 ft | 30 kts | 122° |
| 2026-04-20 03:33 | 25.25081 | 55.37163 | 22 ft | 30 kts | 122° |
| 2026-04-20 03:33 | 25.24971 | 55.37367 | 22 ft | 31 kts | 121° |
| 2026-04-20 03:33 | 25.24856 | 55.37573 | 23 ft | 32 kts | 122° |
| 2026-04-20 03:33 | 25.24741 | 55.37785 | 23 ft | 28 kts | 121° |
| 2026-04-20 03:34 | 25.24681 | 55.37887 | 22 ft | 13 kts | 123° |
| 2026-04-20 03:34 | 25.24694 | 55.37970 | 22 ft | 13 kts | 35° |
| 2026-04-20 03:34 | 25.24782 | 55.38021 | 22 ft | 15 kts | 8° |
| 2026-04-20 03:34 | 25.24859 | 55.37925 | 23 ft | 33 kts | 301° |
| 2026-04-20 03:35 | 25.25140 | 55.37420 | 24 ft | 118 kts | 302° |
| 2026-04-20 03:35 | 25.25689 | 55.36435 | 65 ft | 175 kts | 301° |
| 2026-04-20 03:35 | 25.26318 | 55.35319 | 886 ft | 170 kts | 301° |
| 2026-04-20 03:35 | 25.26939 | 55.34200 | 1541 ft | 174 kts | 301° |
| 2026-04-20 03:36 | 25.27595 | 55.33016 | 1972 ft | 185 kts | 301° |
| 2026-04-20 03:36 | 25.28269 | 55.31798 | 2531 ft | 186 kts | 301° |
| 2026-04-20 03:36 | 25.28928 | 55.30564 | 3099 ft | 187 kts | 296° |
| 2026-04-20 03:36 | 25.29185 | 55.29149 | 3648 ft | 192 kts | 270° |
| 2026-04-20 03:37 | 25.28826 | 55.27685 | 4043 ft | 205 kts | 246° |
| 2026-04-20 03:37 | 25.28204 | 55.26254 | 4535 ft | 208 kts | 248° |
| 2026-04-20 03:37 | 25.27580 | 55.24804 | 5044 ft | 210 kts | 248° |
| 2026-04-20 03:37 | 25.26954 | 55.23338 | 5542 ft | 212 kts | 248° |
| 2026-04-20 03:38 | 25.26324 | 55.21860 | 6046 ft | 214 kts | 248° |
| 2026-04-20 03:38 | 25.25682 | 55.20353 | 6387 ft | 224 kts | 248° |
| 2026-04-20 03:38 | 25.24996 | 55.18734 | 6541 ft | 240 kts | 248° |
| 2026-04-20 03:38 | 25.24294 | 55.17044 | 6859 ft | 243 kts | 251° |
| 2026-04-20 03:39 | 25.23893 | 55.15240 | 7226 ft | 242 kts | 265° |
| 2026-04-20 03:39 | 25.23648 | 55.13396 | 7611 ft | 243 kts | 264° |
| 2026-04-20 03:39 | 25.23393 | 55.11526 | 7998 ft | 244 kts | 264° |
| 2026-04-20 03:39 | 25.23137 | 55.09669 | 8389 ft | 245 kts | 264° |
| 2026-04-20 03:40 | 25.22881 | 55.07812 | 8789 ft | 245 kts | 264° |
| 2026-04-20 03:40 | 25.22624 | 55.05928 | 9056 ft | 255 kts | 264° |
| 2026-04-20 03:40 | 25.22349 | 55.03905 | 9205 ft | 278 kts | 264° |
| 2026-04-20 03:40 | 25.22056 | 55.01751 | 9797 ft | 287 kts | 264° |
| 2026-04-20 03:41 | 25.21752 | 54.99511 | 10166 ft | 305 kts | 264° |
| 2026-04-20 03:41 | 25.21428 | 54.97109 | 10413 ft | 325 kts | 264° |
| 2026-04-20 03:41 | 25.21090 | 54.94614 | 10952 ft | 332 kts | 264° |
| 2026-04-20 03:41 | 25.20821 | 54.92065 | 11588 ft | 336 kts | 266° |
| 2026-04-20 03:42 | 25.20624 | 54.89483 | 12238 ft | 339 kts | 268° |
| 2026-04-20 03:42 | 25.20459 | 54.86871 | 12888 ft | 343 kts | 268° |
| 2026-04-20 03:42 | 25.20302 | 54.84228 | 13533 ft | 347 kts | 268° |
| 2026-04-20 03:42 | 25.20137 | 54.81554 | 14119 ft | 351 kts | 268° |
| 2026-04-20 03:43 | 25.19957 | 54.78853 | 14709 ft | 354 kts | 267° |
| 2026-04-20 03:43 | 25.19821 | 54.76133 | 15297 ft | 356 kts | 272° |
| 2026-04-20 03:43 | 25.19960 | 54.73397 | 15889 ft | 358 kts | 275° |
| 2026-04-20 03:43 | 25.20120 | 54.70639 | 16495 ft | 361 kts | 275° |
| 2026-04-20 03:44 | 25.20282 | 54.67862 | 17087 ft | 364 kts | 275° |
| 2026-04-20 03:44 | 25.20445 | 54.65062 | 17673 ft | 367 kts | 275° |
| 2026-04-20 03:44 | 25.20608 | 54.62242 | 18234 ft | 370 kts | 275° |
| 2026-04-20 03:44 | 25.20774 | 54.59399 | 18727 ft | 372 kts | 275° |
| 2026-04-20 03:45 | 25.20940 | 54.56539 | 19240 ft | 375 kts | 275° |
| 2026-04-20 03:45 | 25.21129 | 54.53660 | 19750 ft | 376 kts | 278° |
| 2026-04-20 03:45 | 25.21673 | 54.50829 | 20254 ft | 378 kts | 286° |
| 2026-04-20 03:45 | 25.22382 | 54.48028 | 20774 ft | 380 kts | 285° |
| 2026-04-20 03:46 | 25.23095 | 54.45214 | 21276 ft | 382 kts | 285° |
| 2026-04-20 03:46 | 25.23821 | 54.42343 | 21770 ft | 384 kts | 285° |
| 2026-04-20 03:46 | 25.24542 | 54.39494 | 22244 ft | 386 kts | 285° |
| 2026-04-20 03:46 | 25.25264 | 54.36629 | 22733 ft | 388 kts | 285° |
| 2026-04-20 03:47 | 25.25987 | 54.33749 | 23219 ft | 390 kts | 284° |
| 2026-04-20 03:47 | 25.26713 | 54.30851 | 23630 ft | 393 kts | 284° |
| 2026-04-20 03:47 | 25.27439 | 54.27932 | 24000 ft | 395 kts | 284° |
| 2026-04-20 03:47 | 25.28169 | 54.24992 | 24373 ft | 398 kts | 284° |
| 2026-04-20 03:48 | 25.28901 | 54.22039 | 24776 ft | 400 kts | 284° |
| 2026-04-20 03:48 | 25.29634 | 54.19069 | 25173 ft | 402 kts | 284° |
| 2026-04-20 03:48 | 25.30369 | 54.16085 | 25568 ft | 404 kts | 284° |
| 2026-04-20 03:48 | 25.31110 | 54.13075 | 25809 ft | 406 kts | 284° |
| 2026-04-20 03:49 | 25.31803 | 54.10091 | 25860 ft | 393 kts | 283° |
| 2026-04-20 03:49 | 25.32424 | 54.07207 | 25868 ft | 382 kts | 282° |
| 2026-04-20 03:49 | 25.33010 | 54.04355 | 25867 ft | 378 kts | 282° |
| 2026-04-20 03:49 | 25.33583 | 54.01527 | 25869 ft | 377 kts | 282° |
| 2026-04-20 03:50 | 25.34160 | 53.98699 | 25865 ft | 377 kts | 282° |
| 2026-04-20 03:50 | 25.34741 | 53.95881 | 25867 ft | 376 kts | 282° |
| 2026-04-20 03:50 | 25.35327 | 53.93069 | 25866 ft | 375 kts | 283° |
| 2026-04-20 03:50 | 25.35918 | 53.90260 | 25866 ft | 375 kts | 283° |
| 2026-04-20 03:51 | 25.36513 | 53.87448 | 25864 ft | 375 kts | 283° |
| 2026-04-20 03:51 | 25.37107 | 53.84643 | 25866 ft | 375 kts | 283° |
| 2026-04-20 03:51 | 25.37700 | 53.81838 | 25872 ft | 375 kts | 283° |
| 2026-04-20 03:51 | 25.38294 | 53.79028 | 25872 ft | 375 kts | 283° |
| 2026-04-20 03:52 | 25.38884 | 53.76224 | 25873 ft | 375 kts | 283° |
| 2026-04-20 03:52 | 25.39474 | 53.73412 | 25871 ft | 375 kts | 283° |
| 2026-04-20 03:52 | 25.40060 | 53.70609 | 25878 ft | 374 kts | 283° |
| 2026-04-20 03:52 | 25.40648 | 53.67805 | 25880 ft | 374 kts | 283° |
| 2026-04-20 03:53 | 25.41241 | 53.64970 | 25879 ft | 374 kts | 283° |
| 2026-04-20 03:53 | 25.41825 | 53.62169 | 25880 ft | 373 kts | 283° |
| 2026-04-20 03:53 | 25.42408 | 53.59374 | 25878 ft | 373 kts | 283° |
| 2026-04-20 03:53 | 25.42993 | 53.56574 | 25883 ft | 373 kts | 283° |
| 2026-04-20 03:54 | 25.43576 | 53.53783 | 25881 ft | 373 kts | 283° |
| 2026-04-20 03:54 | 25.44157 | 53.50988 | 25885 ft | 373 kts | 283° |
| 2026-04-20 03:54 | 25.44737 | 53.48197 | 25881 ft | 373 kts | 283° |
| 2026-04-20 03:54 | 25.45319 | 53.45403 | 25877 ft | 373 kts | 283° |
| 2026-04-20 03:55 | 25.45899 | 53.42609 | 25877 ft | 372 kts | 283° |
| 2026-04-20 03:55 | 25.46479 | 53.39817 | 25879 ft | 372 kts | 283° |
| 2026-04-20 03:55 | 25.46863 | 53.37967 | 25885 ft | 372 kts | 283° |
| 2026-04-20 03:55 | 25.47440 | 53.35174 | 25883 ft | 372 kts | 282° |
| 2026-04-20 03:56 | 25.48017 | 53.32376 | 25877 ft | 372 kts | 282° |
| 2026-04-20 03:56 | 25.48591 | 53.29584 | 25878 ft | 372 kts | 282° |
| 2026-04-20 03:56 | 25.49174 | 53.26752 | 25875 ft | 372 kts | 282° |
| 2026-04-20 03:56 | 25.49750 | 53.23964 | 25877 ft | 372 kts | 282° |
| 2026-04-20 03:57 | 25.50325 | 53.21171 | 25874 ft | 372 kts | 282° |
| 2026-04-20 03:57 | 25.50896 | 53.18383 | 25874 ft | 372 kts | 282° |
| 2026-04-20 03:57 | 25.51468 | 53.15594 | 25880 ft | 371 kts | 282° |
| 2026-04-20 03:57 | 25.52040 | 53.12805 | 25878 ft | 371 kts | 282° |
| 2026-04-20 03:58 | 25.52612 | 53.10020 | 25874 ft | 371 kts | 282° |
| 2026-04-20 03:58 | 25.53182 | 53.07234 | 25874 ft | 371 kts | 282° |
| 2026-04-20 03:58 | 25.53748 | 53.04446 | 25876 ft | 371 kts | 282° |
| 2026-04-20 03:58 | 25.54315 | 53.01659 | 25878 ft | 371 kts | 282° |
| 2026-04-20 03:59 | 25.54883 | 52.98878 | 25876 ft | 371 kts | 282° |
| 2026-04-20 03:59 | 25.55451 | 52.96091 | 25883 ft | 371 kts | 282° |
| 2026-04-20 03:59 | 25.56018 | 52.93310 | 25883 ft | 370 kts | 282° |
| 2026-04-20 03:59 | 25.56757 | 52.90578 | 25888 ft | 371 kts | 291° |
| 2026-04-20 04:00 | 25.57918 | 52.88024 | 25889 ft | 372 kts | 296° |
| 2026-04-20 04:00 | 25.59158 | 52.85510 | 25886 ft | 372 kts | 296° |
| 2026-04-20 04:00 | 25.60393 | 52.82993 | 25880 ft | 372 kts | 296° |
| 2026-04-20 04:00 | 25.61627 | 52.80466 | 25881 ft | 372 kts | 296° |
| 2026-04-20 04:01 | 25.62857 | 52.77944 | 25880 ft | 372 kts | 296° |
| 2026-04-20 04:01 | 25.64088 | 52.75418 | 25878 ft | 372 kts | 296° |
| 2026-04-20 04:01 | 25.65317 | 52.72892 | 25880 ft | 372 kts | 296° |
| 2026-04-20 04:01 | 25.66545 | 52.70369 | 25883 ft | 372 kts | 296° |
| 2026-04-20 04:02 | 25.67773 | 52.67841 | 25886 ft | 372 kts | 296° |
| 2026-04-20 04:02 | 25.69018 | 52.65281 | 25887 ft | 372 kts | 296° |
| 2026-04-20 04:02 | 25.70245 | 52.62758 | 25886 ft | 372 kts | 296° |
| 2026-04-20 04:02 | 25.71474 | 52.60231 | 25887 ft | 372 kts | 296° |
| 2026-04-20 04:03 | 25.72699 | 52.57708 | 25885 ft | 372 kts | 296° |
| 2026-04-20 04:03 | 25.73922 | 52.55183 | 25887 ft | 371 kts | 296° |
| 2026-04-20 04:03 | 25.75144 | 52.52655 | 25886 ft | 371 kts | 296° |
| 2026-04-20 04:03 | 25.76360 | 52.50134 | 25884 ft | 371 kts | 296° |
| 2026-04-20 04:04 | 25.77561 | 52.47594 | 25896 ft | 371 kts | 295° |
| 2026-04-20 04:04 | 25.78744 | 52.45051 | 25886 ft | 371 kts | 295° |
| 2026-04-20 04:04 | 25.79921 | 52.42505 | 25885 ft | 371 kts | 295° |
| 2026-04-20 04:04 | 25.81094 | 52.39960 | 25890 ft | 370 kts | 295° |
| 2026-04-20 04:05 | 25.82267 | 52.37409 | 25893 ft | 370 kts | 295° |
| 2026-04-20 04:05 | 25.83440 | 52.34868 | 25890 ft | 370 kts | 295° |
| 2026-04-20 04:05 | 25.84617 | 52.32328 | 25887 ft | 370 kts | 295° |
| 2026-04-20 04:05 | 25.85796 | 52.29791 | 25885 ft | 370 kts | 295° |
| 2026-04-20 04:06 | 25.87056 | 52.27306 | 25884 ft | 371 kts | 302° |
| 2026-04-20 04:06 | 25.88699 | 52.25087 | 25900 ft | 372 kts | 310° |
| 2026-04-20 04:06 | 25.90461 | 52.22980 | 25890 ft | 373 kts | 310° |
| 2026-04-20 04:06 | 25.92221 | 52.20869 | 25887 ft | 373 kts | 310° |
| 2026-04-20 04:07 | 25.93978 | 52.18755 | 25881 ft | 373 kts | 310° |
| 2026-04-20 04:07 | 25.95733 | 52.16636 | 25880 ft | 373 kts | 310° |
| 2026-04-20 04:07 | 25.97487 | 52.14515 | 25881 ft | 373 kts | 310° |
| 2026-04-20 04:07 | 25.99238 | 52.12392 | 25878 ft | 373 kts | 310° |
| 2026-04-20 04:08 | 26.00991 | 52.10265 | 25879 ft | 373 kts | 310° |
| 2026-04-20 04:08 | 26.02741 | 52.08140 | 25878 ft | 373 kts | 310° |
| 2026-04-20 04:08 | 26.04517 | 52.05986 | 25878 ft | 373 kts | 310° |
| 2026-04-20 04:08 | 26.06273 | 52.03859 | 25886 ft | 373 kts | 309° |
| 2026-04-20 04:09 | 26.08029 | 52.01733 | 25893 ft | 373 kts | 309° |
| 2026-04-20 04:09 | 26.09787 | 51.99605 | 25893 ft | 378 kts | 309° |
| 2026-04-20 04:09 | 26.11554 | 51.97464 | 25840 ft | 371 kts | 309° |
| 2026-04-20 04:09 | 26.13281 | 51.95377 | 25502 ft | 363 kts | 309° |
| 2026-04-20 04:10 | 26.14982 | 51.93324 | 25065 ft | 359 kts | 309° |
| 2026-04-20 04:10 | 26.16664 | 51.91287 | 24626 ft | 356 kts | 309° |
| 2026-04-20 04:10 | 26.18330 | 51.89262 | 24175 ft | 353 kts | 309° |
| 2026-04-20 04:10 | 26.19984 | 51.87250 | 23718 ft | 351 kts | 309° |
| 2026-04-20 04:11 | 26.21620 | 51.85253 | 23226 ft | 348 kts | 309° |
| 2026-04-20 04:11 | 26.23248 | 51.83263 | 22703 ft | 346 kts | 309° |
| 2026-04-20 04:11 | 26.24821 | 51.81251 | 22134 ft | 343 kts | 303° |
| 2026-04-20 04:11 | 26.26032 | 51.78991 | 21664 ft | 337 kts | 294° |
| 2026-04-20 04:12 | 26.27062 | 51.76668 | 21196 ft | 333 kts | 295° |
| 2026-04-20 04:12 | 26.28089 | 51.74364 | 20714 ft | 331 kts | 295° |
| 2026-04-20 04:12 | 26.29110 | 51.72077 | 20233 ft | 328 kts | 295° |
| 2026-04-20 04:12 | 26.30120 | 51.69809 | 19765 ft | 326 kts | 295° |
| 2026-04-20 04:13 | 26.31124 | 51.67554 | 19305 ft | 324 kts | 295° |
| 2026-04-20 04:13 | 26.32121 | 51.65317 | 18849 ft | 321 kts | 295° |
| 2026-04-20 04:13 | 26.33112 | 51.63092 | 18391 ft | 319 kts | 295° |
| 2026-04-20 04:13 | 26.34094 | 51.60888 | 17919 ft | 317 kts | 295° |
| 2026-04-20 04:14 | 26.35073 | 51.58690 | 17416 ft | 315 kts | 295° |
| 2026-04-20 04:14 | 26.36055 | 51.56484 | 16918 ft | 312 kts | 295° |
| 2026-04-20 04:14 | 26.37016 | 51.54327 | 16443 ft | 310 kts | 295° |
| 2026-04-20 04:14 | 26.37934 | 51.52168 | 15983 ft | 306 kts | 289° |
| 2026-04-20 04:15 | 26.38644 | 51.49953 | 15528 ft | 303 kts | 288° |
| 2026-04-20 04:15 | 26.39349 | 51.47749 | 15079 ft | 300 kts | 288° |
| 2026-04-20 04:15 | 26.40047 | 51.45568 | 14640 ft | 297 kts | 288° |
| 2026-04-20 04:15 | 26.40739 | 51.43406 | 14202 ft | 295 kts | 288° |
| 2026-04-20 04:16 | 26.41426 | 51.41255 | 13781 ft | 293 kts | 288° |
| 2026-04-20 04:16 | 26.42106 | 51.39124 | 13294 ft | 291 kts | 288° |
| 2026-04-20 04:16 | 26.42784 | 51.37003 | 12792 ft | 290 kts | 288° |
| 2026-04-20 04:16 | 26.43462 | 51.34885 | 12295 ft | 290 kts | 288° |
| 2026-04-20 04:17 | 26.44136 | 51.32774 | 12039 ft | 289 kts | 288° |
| 2026-04-20 04:17 | 26.44815 | 51.30643 | 12011 ft | 293 kts | 288° |
| 2026-04-20 04:17 | 26.45420 | 51.28473 | 12017 ft | 293 kts | 279° |
| 2026-04-20 04:17 | 26.45523 | 51.26209 | 12019 ft | 292 kts | 264° |
| 2026-04-20 04:18 | 26.45060 | 51.24014 | 12019 ft | 292 kts | 249° |
| 2026-04-20 04:18 | 26.44276 | 51.21921 | 12017 ft | 293 kts | 248° |
| 2026-04-20 04:18 | 26.43492 | 51.19829 | 12018 ft | 293 kts | 248° |
| 2026-04-20 04:18 | 26.42709 | 51.17730 | 12019 ft | 293 kts | 248° |
| 2026-04-20 04:19 | 26.41930 | 51.15633 | 12017 ft | 292 kts | 248° |
| 2026-04-20 04:19 | 26.41153 | 51.13539 | 12019 ft | 292 kts | 248° |
| 2026-04-20 04:19 | 26.40365 | 51.11414 | 12017 ft | 293 kts | 248° |
| 2026-04-20 04:19 | 26.39602 | 51.09356 | 12017 ft | 288 kts | 248° |
| 2026-04-20 04:20 | 26.38831 | 51.07280 | 12017 ft | 285 kts | 248° |
| 2026-04-20 04:20 | 26.38070 | 51.05235 | 12018 ft | 285 kts | 248° |
| 2026-04-20 04:20 | 26.37309 | 51.03192 | 12017 ft | 285 kts | 248° |
| 2026-04-20 04:20 | 26.36547 | 51.01153 | 12020 ft | 285 kts | 248° |
| 2026-04-20 04:21 | 26.35784 | 50.99113 | 12018 ft | 285 kts | 248° |
| 2026-04-20 04:21 | 26.35024 | 50.97078 | 12029 ft | 285 kts | 248° |
| 2026-04-20 04:21 | 26.34267 | 50.95047 | 11791 ft | 282 kts | 248° |
| 2026-04-20 04:21 | 26.33547 | 50.93019 | 11338 ft | 281 kts | 254° |
| 2026-04-20 04:22 | 26.33461 | 50.90868 | 10902 ft | 281 kts | 281° |
| 2026-04-20 04:22 | 26.34344 | 50.88933 | 10459 ft | 287 kts | 310° |
| 2026-04-20 04:22 | 26.35964 | 50.87608 | 9996 ft | 292 kts | 326° |
| 2026-04-20 04:22 | 26.37574 | 50.86237 | 9478 ft | 291 kts | 311° |
| 2026-04-20 04:23 | 26.38814 | 50.84469 | 9017 ft | 289 kts | 303° |
| 2026-04-20 04:23 | 26.39953 | 50.82622 | 8566 ft | 289 kts | 302° |
| 2026-04-20 04:23 | 26.41055 | 50.80749 | 8142 ft | 288 kts | 302° |
| 2026-04-20 04:23 | 26.42071 | 50.78827 | 7705 ft | 286 kts | 290° |
| 2026-04-20 04:24 | 26.42323 | 50.76667 | 7295 ft | 283 kts | 261° |
| 2026-04-20 04:24 | 26.41604 | 50.74658 | 6849 ft | 281 kts | 231° |
| 2026-04-20 04:24 | 26.40110 | 50.73300 | 6423 ft | 279 kts | 204° |
| 2026-04-20 04:24 | 26.38255 | 50.72728 | 5970 ft | 277 kts | 181° |
| 2026-04-20 04:25 | 26.36375 | 50.73057 | 5538 ft | 274 kts | 155° |
| 2026-04-20 04:25 | 26.34826 | 50.74277 | 5117 ft | 269 kts | 129° |
| 2026-04-20 04:25 | 26.33862 | 50.76012 | 4708 ft | 267 kts | 117° |
| 2026-04-20 04:25 | 26.32897 | 50.77820 | 4297 ft | 268 kts | 121° |
| 2026-04-20 04:26 | 26.31878 | 50.79552 | 3891 ft | 267 kts | 122° |
| 2026-04-20 04:26 | 26.31192 | 50.80690 | 3632 ft | 267 kts | 122° |
| 2026-04-20 04:26 | 26.29830 | 50.82956 | 3346 ft | 254 kts | 122° |
| 2026-04-20 04:26 | 26.29202 | 50.84011 | 3275 ft | 241 kts | 122° |
| 2026-04-20 04:27 | 26.28312 | 50.85516 | 3150 ft | 224 kts | 121° |
| 2026-04-20 04:27 | 26.27482 | 50.86922 | 3026 ft | 210 kts | 123° |
| 2026-04-20 04:27 | 26.26410 | 50.87966 | 2829 ft | 205 kts | 151° |
| 2026-04-20 04:27 | 26.25028 | 50.88317 | 2527 ft | 207 kts | 182° |
| 2026-04-20 04:28 | 26.23673 | 50.87834 | 2197 ft | 207 kts | 216° |
| 2026-04-20 04:28 | 26.22755 | 50.86647 | 2008 ft | 204 kts | 244° |
| 2026-04-20 04:28 | 26.22092 | 50.85243 | 2004 ft | 206 kts | 244° |
| 2026-04-20 04:28 | 26.21442 | 50.83894 | 2007 ft | 193 kts | 244° |
| 2026-04-20 04:29 | 26.20795 | 50.82558 | 2010 ft | 197 kts | 243° |
| 2026-04-20 04:29 | 26.20142 | 50.81212 | 2003 ft | 198 kts | 243° |
| 2026-04-20 04:29 | 26.19498 | 50.79855 | 2000 ft | 198 kts | 248° |
| 2026-04-20 04:29 | 26.19185 | 50.78386 | 2002 ft | 195 kts | 270° |
| 2026-04-20 04:30 | 26.19377 | 50.76896 | 2003 ft | 192 kts | 292° |
| 2026-04-20 04:30 | 26.20003 | 50.75606 | 2009 ft | 190 kts | 305° |
| 2026-04-20 04:30 | 26.20721 | 50.74369 | 1917 ft | 190 kts | 305° |
| 2026-04-20 04:30 | 26.21433 | 50.73141 | 1721 ft | 188 kts | 305° |
| 2026-04-20 04:31 | 26.22137 | 50.71924 | 1488 ft | 186 kts | 306° |
| 2026-04-20 04:31 | 26.22828 | 50.70730 | 1274 ft | 181 kts | 306° |
| 2026-04-20 04:31 | 26.23514 | 50.69544 | 1026 ft | 181 kts | 306° |
| 2026-04-20 04:31 | 26.24144 | 50.68450 | 808 ft | 155 kts | 306° |
| 2026-04-20 04:32 | 26.24696 | 50.67494 | 623 ft | 141 kts | 304° |
| 2026-04-20 04:32 | 26.25215 | 50.66598 | 435 ft | 136 kts | 303° |
| 2026-04-20 04:32 | 26.25723 | 50.65721 | 268 ft | 133 kts | 304° |
| 2026-04-20 04:32 | 26.26220 | 50.64861 | 98 ft | 132 kts | 303° |
| 2026-04-20 04:33 | 26.26686 | 50.64049 | 17 ft | 110 kts | 303° |
| 2026-04-20 04:33 | 26.27009 | 50.63495 | 15 ft | 60 kts | 303° |
| 2026-04-20 04:33 | 26.27155 | 50.63242 | 15 ft | 28 kts | 302° |
| 2026-04-20 04:33 | 26.27233 | 50.63096 | 16 ft | 21 kts | 289° |
| 2026-04-20 04:34 | 26.27252 | 50.62931 | 17 ft | 22 kts | 272° |
| 2026-04-20 04:34 | 26.27261 | 50.62759 | 19 ft | 23 kts | 274° |
| 2026-04-20 04:34 | 26.27179 | 50.62661 | 19 ft | 21 kts | 158° |
| 2026-04-20 04:34 | 26.27090 | 50.62785 | 22 ft | 18 kts | 122° |
| 2026-04-20 04:35 | 26.27043 | 50.62869 | 22 ft | 11 kts | 122° |
| 2026-04-20 04:35 | 26.26997 | 50.62951 | 22 ft | 14 kts | 122° |
| 2026-04-20 04:35 | 26.26949 | 50.63003 | 21 ft | 9 kts | 182° |
| 2026-04-20 04:35 | 26.26914 | 50.62983 | 21 ft | 6 kts | 216° |
| 2026-04-20 04:36 | 26.26897 | 50.62971 | 21 ft | 0 kts | 214° |